Jelm, WY

5:00 AM MDT on April 29, 2017 (GMT -0600)
MSAWW4 | | Change Station

Elev 9062 ft 41.07 °N, 106.13 °W | Updated 44 minutes ago

Light Snow
Light Snow
16.0 °F
Feels Like 6 °F
N
7.0
Wind Variable Wind from East

Today
High -- | Low -- °F
--% Chance of Precip.
Yesterday
High -- | Low -- °F
Precip. -- in
Pressure 30.14 in
Visibility 9.0 miles
Clouds Overcast 1700 ft
Windchill 6 °F
Dew Point 14.0 °F
Humidity 91%
Rainfall in
Snow Depth Not available.
6:04 AM 7:59 PM
Waxing Crescent, 13% visible
METAR KLAR 291053Z AUTO 07011KT 9SM -SN OVC017 M05/M08 A3007 RMK AO2 SNB47 SLP204 P0000 T10501078
Pressure 30.14 in
Visibility 9.0 miles
Clouds Overcast 1700 ft
Windchill 6 °F
Dew Point 14.0 °F
Humidity 91%
Rainfall in
Snow Depth Not available.
6:04 AM 7:59 PM
Waxing Crescent, 13% visible
METAR KLAR 291053Z AUTO 07011KT 9SM -SN OVC017 M05/M08 A3007 RMK AO2 SNB47 SLP204 P0000 T10501078

Get Severe Weather Alerts

Thanks for signing up!

Be on the lookout for a verification email in your inbox.

You'll start receiving the daily forecast at 8 AM.

×

10-Day Weather Forecast

Almanac

Astronomy

Apr. 29, 2017 Rise Set
Actual Time
Civil Twilight
Nautical Twilight
Astronomical Twilight
Moon
Length of Visible Light
Length of Day
Tomorrow will be .
, % of the Moon is Illuminated

Today's Extremes

State Highs State Lows

Community

WunderPhotos

WunderBlog® & News

Nearby

Air Quality

  Air Quality AQ Index Pollutant
Not available.

Snow Depth

Station Depth Elevation

Earthquake Activity

City Distance Mag. Time & Date
Minimum magnitude displayed is 2.5.

Coastal Water Temperatures

Place Temperature

Stations

Nearby Weather Stations

Station Location Temp. Windchill Dew Point Humidity Wind Precip. Elev Updated Type
                   

Watches & Warnings

There are currently no watches in effect.